.
WxDataArchive / Data Records for 2011-02-16
2011-02-15 February 2011 2011-02-17

Data Records for Wednesday, 16 February 2011

Time	Temp	Chill	HIndex	Humid	Dewpt	 Wind 	HiWind	WindDir	Rain 	Barom 
-----	----	-----	------	-----	-----	------	------	-------	-----	----- 
00:00	32.9	32.9	32.9	70	24.2	0	2	68	0.00	30.143 
00:05	32.7	32.7	32.7	70	24.0	0	1	68	0.00	30.143 
00:10	32.4	32.4	32.4	70	23.7	0	1	68	0.00	30.143 
00:15	32.1	32.1	32.1	71	23.8	0	2	68	0.00	30.155 
00:20	31.8	31.8	31.8	72	23.8	0	1	68	0.00	30.155 
00:25	31.5	31.5	31.5	72	23.5	0	0	---	0.00	30.155 
00:30	31.2	31.2	31.2	72	23.2	0	0	---	0.00	30.152 
00:35	30.7	30.7	30.7	73	23.1	0	0	---	0.00	30.152 
00:40	30.3	30.3	30.3	74	23.0	0	1	68	0.00	30.152 
00:45	30.1	30.1	30.1	74	22.8	0	0	---	0.00	30.142 
00:50	30.0	30.0	30.0	75	23.1	0	1	68	0.00	30.142 
00:55	29.8	29.8	29.8	76	23.2	0	1	68	0.00	30.142 
01:00	30.0	30.0	30.0	76	23.4	0	1	68	0.00	30.131 
01:05	30.0	30.0	30.0	76	23.4	0	0	---	0.00	30.131 
01:10	30.0	30.0	30.0	76	23.4	0	2	68	0.00	30.131 
01:15	30.0	30.0	30.0	76	23.4	0	1	68	0.00	30.119 
01:20	29.8	29.8	29.8	76	23.2	0	3	135	0.00	30.119 
01:25	29.8	29.8	29.8	76	23.2	0	2	112	0.00	30.119 
01:30	29.8	29.8	29.8	77	23.5	0	1	112	0.00	30.106 
01:35	30.0	30.0	30.0	76	23.4	0	1	112	0.00	30.106 
01:40	29.8	29.8	29.8	76	23.2	0	0	---	0.00	30.106 
01:45	29.8	29.8	29.8	76	23.2	0	1	112	0.00	30.103 
01:50	30.0	30.0	30.0	76	23.4	0	2	112	0.00	30.103 
01:55	30.0	30.0	30.0	76	23.4	0	2	135	0.00	30.103 
02:00	30.0	30.0	30.0	76	23.4	0	1	135	0.00	30.106 
02:05	29.8	29.8	29.8	76	23.2	0	0	---	0.00	30.106 
02:10	29.7	29.7	29.7	76	23.1	0	0	---	0.00	30.106 
02:15	29.5	29.5	29.5	76	22.9	0	0	---	0.00	30.111 
02:20	29.3	29.3	29.3	76	22.7	0	0	---	0.00	30.111 
02:25	29.0	29.0	29.0	77	22.7	0	0	---	0.00	30.111 
02:30	28.8	28.8	28.8	77	22.5	0	0	---	0.00	30.110 
02:35	28.7	28.7	28.7	77	22.4	0	0	---	0.00	30.110 
02:40	28.7	28.7	28.7	78	22.7	0	1	202	0.00	30.110 
02:45	28.7	28.7	28.7	79	23.0	0	0	---	0.00	30.105 
02:50	29.0	29.0	29.0	78	23.0	0	0	---	0.00	30.105 
02:55	29.1	29.1	29.1	78	23.1	0	0	---	0.00	30.105 
03:00	29.1	29.1	29.1	78	23.1	0	1	202	0.00	30.107 
03:05	29.4	29.4	29.4	78	23.4	0	0	---	0.00	30.107 
03:10	29.5	29.5	29.5	78	23.5	0	0	---	0.00	30.107 
03:15	29.8	29.8	29.8	77	23.5	0	0	---	0.00	30.097 
03:20	30.4	30.4	30.4	76	23.8	0	1	202	0.00	30.097 
03:25	30.9	30.9	30.9	75	23.9	0	1	202	0.00	30.097 
03:30	31.0	31.0	31.0	75	24.0	0	0	---	0.00	30.086 
03:35	31.2	31.2	31.2	75	24.2	0	0	---	0.00	30.086 
03:40	31.2	31.2	31.2	74	23.9	0	0	---	0.00	30.086 
03:45	31.2	31.2	31.2	74	23.9	0	0	---	0.00	30.079 
03:50	31.2	31.2	31.2	74	23.9	0	0	---	0.00	30.079 
03:55	31.3	31.3	31.3	74	24.0	0	1	202	0.00	30.079 
04:00	31.3	31.3	31.3	74	24.0	0	0	---	0.00	30.073 
04:05	31.5	31.5	31.5	73	23.9	0	0	---	0.00	30.073 
04:10	31.5	31.5	31.5	73	23.9	0	0	---	0.00	30.073 
04:15	31.5	31.5	31.5	73	23.9	0	0	---	0.00	30.071 
04:20	31.5	31.5	31.5	73	23.9	0	0	---	0.00	30.071 
04:25	31.5	31.5	31.5	73	23.9	0	0	---	0.00	30.071 
04:30	31.5	31.5	31.5	73	23.9	0	0	---	0.00	30.070 
04:35	31.3	31.3	31.3	73	23.7	0	0	---	0.00	30.070 
04:40	31.3	31.3	31.3	73	23.7	0	0	---	0.00	30.070 
04:45	31.2	31.2	31.2	73	23.6	0	0	---	0.00	30.075 
04:50	31.2	31.2	31.2	73	23.6	0	0	---	0.00	30.075 
04:55	31.3	31.3	31.3	73	23.7	0	1	202	0.00	30.075 
05:00	31.5	31.5	31.5	73	23.9	0	1	202	0.00	30.070 
05:05	31.6	31.6	31.6	73	24.0	0	0	---	0.00	30.070 
05:10	31.6	31.6	31.6	73	24.0	0	0	---	0.00	30.070 
05:15	31.8	31.8	31.8	73	24.1	0	0	---	0.00	30.071 
05:20	31.9	31.9	31.9	73	24.2	0	0	---	0.00	30.071 
05:25	32.1	32.1	32.1	73	24.4	0	0	---	0.00	30.071 
05:30	32.2	32.2	32.2	73	24.5	0	0	---	0.00	30.073 
05:35	32.2	32.2	32.2	73	24.5	0	0	---	0.00	30.073 
05:40	32.1	32.1	32.1	72	24.1	0	0	---	0.00	30.073 
05:45	31.9	31.9	31.9	72	23.9	0	0	---	0.00	30.079 
05:50	31.8	31.8	31.8	73	24.1	0	0	---	0.00	30.079 
05:55	31.6	31.6	31.6	73	24.0	0	0	---	0.00	30.079 
06:00	31.3	31.3	31.3	73	23.7	0	0	---	0.00	30.082 
06:05	31.0	31.0	31.0	73	23.4	0	0	---	0.00	30.082 
06:10	30.9	30.9	30.9	74	23.6	0	0	---	0.00	30.082 
06:15	30.9	30.9	30.9	75	23.9	0	0	---	0.00	30.079 
06:20	30.9	30.9	30.9	75	23.9	0	0	---	0.00	30.079 
06:25	30.9	30.9	30.9	76	24.2	0	0	---	0.00	30.079 
06:30	30.9	30.9	30.9	77	24.6	0	0	---	0.00	30.080 
06:35	31.2	31.2	31.2	77	24.8	0	0	---	0.00	30.080 
06:40	31.6	31.6	31.6	77	25.2	0	0	---	0.00	30.080 
06:45	31.9	31.9	31.9	77	25.5	0	0	---	0.00	30.075 
06:50	32.2	32.2	32.2	76	25.5	0	0	---	0.00	30.075 
06:55	32.4	32.4	32.4	76	25.7	0	0	---	0.00	30.075 
07:00	32.5	32.5	32.5	76	25.8	0	0	---	0.00	30.072 
07:05	32.7	32.7	32.7	76	26.0	0	0	---	0.00	30.072 
07:10	32.9	32.9	32.9	76	26.2	0	0	---	0.00	30.072 
07:15	33.4	33.4	33.4	76	26.7	0	1	202	0.00	30.071 
07:20	33.8	33.8	33.8	75	26.7	0	2	202	0.00	30.071 
07:25	34.3	34.3	34.3	74	26.9	0	2	202	0.00	30.071 
07:30	34.6	34.6	34.6	73	26.9	0	1	202	0.00	30.072 
07:35	35.0	35.0	35.0	72	26.9	0	1	202	0.00	30.072 
07:40	35.2	35.2	35.2	71	26.8	0	0	---	0.00	30.072 
07:45	35.3	35.3	35.3	71	26.9	0	1	202	0.00	30.071 
07:50	35.5	35.5	35.5	71	27.0	0	1	202	0.00	30.071 
07:55	35.8	35.8	35.8	70	27.0	0	1	202	0.00	30.071 
08:00	36.0	36.0	36.0	69	26.8	0	1	202	0.00	30.079 
08:05	36.3	36.3	36.3	69	27.1	0	1	202	0.00	30.079 
08:10	36.5	36.5	36.5	69	27.3	0	0	---	0.00	30.079 
08:15	36.6	36.6	36.6	68	27.1	0	1	202	0.00	30.085 
08:20	36.8	36.8	36.8	68	27.2	0	0	---	0.00	30.085 
08:25	36.9	36.9	36.9	68	27.3	0	0	---	0.00	30.085 
08:30	37.0	37.0	37.0	68	27.4	0	0	---	0.00	30.086 
08:35	37.2	37.2	37.2	68	27.6	0	0	---	0.00	30.086 
08:40	37.5	37.5	37.5	67	27.6	0	0	---	0.00	30.086 
08:45	37.8	37.8	37.8	66	27.5	0	1	202	0.00	30.090 
08:50	38.2	38.2	38.2	66	27.9	0	2	202	0.00	30.090 
08:55	38.5	38.5	38.5	65	27.8	0	2	202	0.00	30.090 
09:00	38.8	38.8	38.8	65	28.1	0	2	202	0.00	30.096 
09:05	39.1	39.1	39.1	64	28.0	0	0	---	0.00	30.096 
09:10	39.3	39.3	39.3	64	28.2	0	0	---	0.00	30.096 
09:15	39.6	39.6	39.6	63	28.1	0	0	---	0.00	30.096 
09:20	39.9	39.9	39.9	63	28.3	0	0	---	0.00	30.096 
09:25	40.2	40.2	40.2	62	28.2	0	0	---	0.00	30.096 
09:30	40.8	40.8	40.8	62	28.8	0	0	---	0.00	30.098 
09:35	41.3	41.3	41.3	60	28.5	0	1	202	0.00	30.098 
09:40	41.9	41.9	41.9	59	28.6	0	1	202	0.00	30.098 
09:45	42.3	42.3	42.3	58	28.6	0	2	202	0.00	30.099 
09:50	42.6	42.6	42.6	58	28.9	1	3	202	0.00	30.099 
09:55	42.9	42.9	42.9	57	28.7	1	4	248	0.00	30.099 
10:00	43.2	43.2	43.2	56	28.6	0	2	248	0.00	30.099 
10:05	43.5	43.5	43.5	56	28.9	1	3	248	0.00	30.099 
10:10	44.1	44.1	44.1	55	29.0	0	2	248	0.00	30.099 
10:15	44.5	44.5	44.5	54	28.9	1	4	248	0.00	30.094 
10:20	44.9	44.9	44.9	54	29.3	1	3	248	0.00	30.094 
10:25	45.4	45.4	45.4	53	29.3	2	5	248	0.00	30.094 
10:30	45.7	45.7	45.7	53	29.6	1	5	248	0.00	30.091 
10:35	46.1	46.1	46.1	52	29.5	1	5	248	0.00	30.091 
10:40	46.5	46.5	46.5	52	29.8	1	3	248	0.00	30.091 
10:45	46.8	46.8	46.8	51	29.6	2	7	248	0.00	30.090 
10:50	47.0	47.0	47.0	51	29.8	1	4	270	0.00	30.090 
10:55	47.4	47.4	47.4	51	30.2	1	5	270	0.00	30.090 
11:00	47.6	47.6	47.6	51	30.4	1	5	248	0.00	30.090 
11:05	48.0	48.0	48.0	50	30.3	2	4	248	0.00	30.090 
11:10	48.2	48.2	48.2	50	30.4	3	6	248	0.00	30.090 
11:15	48.3	48.3	48.3	50	30.5	3	5	248	0.00	30.087 
11:20	48.5	48.5	48.5	50	30.7	2	5	248	0.00	30.087 
11:25	48.6	48.6	48.6	50	30.8	1	5	248	0.00	30.087 
11:30	49.1	49.1	49.1	50	31.3	1	3	248	0.00	30.081 
11:35	49.6	49.6	49.6	49	31.2	1	4	248	0.00	30.081 
11:40	49.9	49.9	49.9	48	31.0	1	4	248	0.00	30.081 
11:45	50.2	50.2	50.2	48	31.3	1	4	248	0.00	30.082 
11:50	50.4	50.4	50.4	48	31.5	1	3	248	0.00	30.082 
11:55	50.4	50.4	50.4	47	30.9	3	6	248	0.00	30.082 
12:00	50.4	50.4	50.4	48	31.5	1	7	225	0.00	30.085 
12:05	50.5	50.5	50.5	47	31.0	2	5	225	0.00	30.085 
12:10	50.5	50.5	50.5	48	31.5	1	3	248	0.00	30.085 
12:15	50.7	50.7	50.7	47	31.2	1	4	248	0.00	30.085 
12:20	50.8	50.8	50.8	47	31.3	1	5	248	0.00	30.085 
12:25	50.7	50.7	50.7	48	31.7	1	3	292	0.00	30.085 
12:30	50.7	50.7	50.7	48	31.7	1	4	248	0.00	30.073 
12:35	50.7	50.7	50.7	48	31.7	1	3	248	0.00	30.073 
12:40	50.4	50.4	50.4	49	32.0	1	3	292	0.00	30.073 
12:45	50.4	50.4	50.4	49	32.0	2	7	248	0.00	30.070 
12:50	49.9	49.9	49.9	49	31.5	1	4	248	0.00	30.070 
12:55	49.6	49.6	49.6	50	31.7	1	4	225	0.00	30.070 
13:00	49.5	49.5	49.5	50	31.6	1	4	270	0.00	30.061 
13:05	49.5	49.5	49.5	51	32.1	2	6	248	0.00	30.061 
13:10	49.8	49.8	49.8	51	32.4	2	5	248	0.00	30.061 
13:15	50.1	50.1	50.1	50	32.2	2	7	248	0.00	30.055 
13:20	50.2	50.2	50.2	50	32.3	2	4	248	0.00	30.055 
13:25	50.4	50.4	50.4	50	32.5	2	6	248	0.00	30.055 
13:30	50.5	50.5	50.5	50	32.6	2	5	248	0.00	30.054 
13:35	50.5	50.5	50.5	50	32.6	2	6	225	0.00	30.054 
13:40	50.8	50.8	50.8	50	32.8	2	6	248	0.00	30.054 
13:45	50.8	50.8	50.8	50	32.8	2	6	248	0.00	30.050 
13:50	50.8	50.8	50.8	50	32.8	3	7	248	0.00	30.050 
13:55	51.0	51.0	51.0	50	33.0	1	7	248	0.00	30.050 
14:00	51.1	51.1	51.1	50	33.1	1	5	248	0.00	30.041 
14:05	51.3	51.3	51.3	50	33.3	1	5	248	0.00	30.041 
14:10	51.3	51.3	51.3	50	33.3	1	4	270	0.00	30.041 
14:15	51.3	51.3	51.3	50	33.3	2	5	248	0.00	30.040 
14:20	51.3	51.3	51.3	50	33.3	2	5	248	0.00	30.040 
14:25	51.3	51.3	51.3	50	33.3	2	5	248	0.00	30.040 
14:30	51.4	51.4	51.4	51	33.9	0	3	248	0.00	30.041 
14:35	51.6	51.6	51.6	50	33.6	1	5	248	0.00	30.041 
14:40	51.4	51.4	51.4	50	33.4	2	5	248	0.00	30.041 
14:45	51.4	51.4	51.4	51	33.9	2	6	248	0.00	30.040 
14:50	51.6	51.6	51.6	50	33.6	2	6	248	0.00	30.040 
14:55	51.6	51.6	51.6	51	34.1	2	6	248	0.00	30.040 
15:00	51.6	51.6	51.6	51	34.1	2	7	225	0.00	30.035 
15:05	51.7	51.7	51.7	51	34.2	1	3	225	0.00	30.035 
15:10	51.7	51.7	51.7	51	34.2	1	2	248	0.00	30.035 
15:15	51.6	51.6	51.6	51	34.1	1	4	248	0.00	30.037 
15:20	51.4	51.4	51.4	52	34.4	0	4	248	0.00	30.037 
15:25	51.7	51.7	51.7	52	34.6	1	6	248	0.00	30.037 
15:30	52.3	52.3	52.3	51	34.7	1	5	248	0.00	30.038 
15:35	52.3	52.3	52.3	51	34.7	1	5	248	0.00	30.038 
15:40	52.3	52.3	52.3	52	35.2	1	6	248	0.00	30.038 
15:45	52.5	52.5	52.5	52	35.4	0	2	248	0.00	30.034 
15:50	52.2	52.2	52.2	52	35.1	0	3	248	0.00	30.034 
15:55	51.9	51.9	51.9	52	34.8	0	2	248	0.00	30.034 
16:00	51.4	51.4	51.4	53	34.8	0	2	248	0.00	30.030 
16:05	51.1	51.1	51.1	53	34.6	1	3	248	0.00	30.030 
16:10	51.0	51.0	51.0	53	34.5	0	2	248	0.00	30.030 
16:15	50.8	50.8	50.8	53	34.3	1	4	248	0.00	30.030 
16:20	50.7	50.7	50.7	54	34.7	1	2	90	0.00	30.030 
16:25	50.5	50.5	50.5	54	34.5	0	2	292	0.00	30.030 
16:30	50.2	50.2	50.2	54	34.2	1	2	22	0.00	30.037 
16:35	49.9	49.9	49.9	55	34.4	0	3	248	0.00	30.037 
16:40	49.8	49.8	49.8	55	34.3	0	2	248	0.00	30.037 
16:45	49.5	49.5	49.5	56	34.5	0	3	248	0.00	30.036 
16:50	49.2	49.2	49.2	56	34.2	0	0	---	0.00	30.036 
16:55	48.9	48.9	48.9	57	34.3	0	0	---	0.00	30.036 
17:00	48.8	48.8	48.8	57	34.3	0	1	248	0.00	30.036 
17:05	48.5	48.5	48.5	58	34.4	0	0	---	0.00	30.036 
17:10	48.5	48.5	48.5	58	34.4	0	1	248	0.00	30.036 
17:15	48.5	48.5	48.5	58	34.4	0	3	248	0.00	30.040 
17:20	48.3	48.3	48.3	58	34.2	0	1	248	0.00	30.040 
17:25	48.2	48.2	48.2	58	34.1	0	0	---	0.00	30.040 
17:30	48.0	48.0	48.0	59	34.4	0	0	---	0.00	30.041 
17:35	47.9	47.9	47.9	59	34.3	0	0	---	0.00	30.041 
17:40	47.7	47.7	47.7	59	34.1	0	0	---	0.00	30.041 
17:45	47.7	47.7	47.7	60	34.5	0	1	248	0.00	30.040 
17:50	47.7	47.7	47.7	60	34.5	0	1	248	0.00	30.040 
17:55	47.6	47.6	47.6	60	34.4	0	1	248	0.00	30.040 
18:00	47.3	47.3	47.3	61	34.5	0	0	---	0.00	30.034 
18:05	47.0	47.0	47.0	61	34.3	0	0	---	0.00	30.034 
18:10	46.5	46.5	46.5	62	34.2	0	0	---	0.00	30.034 
18:15	46.2	46.2	46.2	62	33.9	0	0	---	0.00	30.036 
18:20	45.8	45.8	45.8	63	33.9	0	0	---	0.00	30.036 
18:25	45.4	45.4	45.4	64	33.9	0	0	---	0.00	30.036 
18:30	44.9	44.9	44.9	65	33.9	0	0	---	0.00	30.037 
18:35	44.5	44.5	44.5	66	33.9	0	0	---	0.00	30.037 
18:40	44.1	44.1	44.1	68	34.2	0	0	---	0.00	30.037 
18:45	43.6	43.6	43.6	68	33.7	0	0	---	0.00	30.030 
18:50	43.3	43.3	43.3	69	33.8	0	0	---	0.00	30.030 
18:55	43.2	43.2	43.2	69	33.7	0	0	---	0.00	30.030 
19:00	43.1	43.1	43.1	69	33.6	0	0	---	0.00	30.031 
19:05	42.9	42.9	42.9	70	33.8	0	0	---	0.00	30.031 
19:10	42.8	42.8	42.8	70	33.7	0	0	---	0.00	30.031 
19:15	42.8	42.8	42.8	70	33.7	0	0	---	0.00	30.029 
19:20	42.8	42.8	42.8	71	34.1	0	0	---	0.00	30.029 
19:25	42.6	42.6	42.6	71	33.9	0	0	---	0.00	30.029 
19:30	42.5	42.5	42.5	71	33.8	0	0	---	0.00	30.028 
19:35	42.3	42.3	42.3	72	33.9	0	0	---	0.00	30.028 
19:40	42.1	42.1	42.1	72	33.7	0	0	---	0.00	30.028 
19:45	41.6	41.6	41.6	73	33.6	0	0	---	0.00	30.027 
19:50	41.3	41.3	41.3	73	33.3	0	0	---	0.00	30.027 
19:55	41.1	41.1	41.1	74	33.5	0	0	---	0.00	30.027 
20:00	40.8	40.8	40.8	75	33.5	0	0	---	0.00	30.022 
20:05	40.5	40.5	40.5	76	33.5	0	0	---	0.00	30.022 
20:10	40.3	40.3	40.3	77	33.7	0	0	---	0.00	30.022 
20:15	40.3	40.3	40.3	77	33.7	0	0	---	0.00	30.011 
20:20	40.2	40.2	40.2	77	33.6	0	0	---	0.00	30.011 
20:25	40.2	40.2	40.2	77	33.6	0	0	---	0.00	30.011 
20:30	40.1	40.1	40.1	78	33.8	0	0	---	0.00	30.007 
20:35	40.1	40.1	40.1	78	33.8	0	0	---	0.00	30.007 
20:40	40.1	40.1	40.1	78	33.8	0	0	---	0.00	30.007 
20:45	39.9	39.9	39.9	78	33.6	0	0	---	0.00	29.997 
20:50	39.9	39.9	39.9	79	33.9	0	0	---	0.00	29.997 
20:55	39.9	39.9	39.9	79	33.9	0	0	---	0.00	29.997 
21:00	39.9	39.9	39.9	79	33.9	0	0	---	0.00	29.996 
21:05	39.9	39.9	39.9	80	34.2	0	0	---	0.00	29.996 
21:10	40.1	40.1	40.1	80	34.4	0	0	---	0.00	29.996 
21:15	39.9	39.9	39.9	79	33.9	0	0	---	0.00	29.993 
21:20	39.9	39.9	39.9	80	34.2	0	0	---	0.00	29.993 
21:25	39.9	39.9	39.9	80	34.2	0	0	---	0.00	29.993 
21:30	39.8	39.8	39.8	80	34.1	0	0	---	0.00	29.995 
21:35	39.8	39.8	39.8	80	34.1	0	0	---	0.00	29.995 
21:40	39.6	39.6	39.6	80	33.9	0	0	---	0.00	29.995 
21:45	39.5	39.5	39.5	81	34.2	0	0	---	0.00	29.992 
21:50	39.5	39.5	39.5	81	34.2	0	0	---	0.00	29.992 
21:55	39.5	39.5	39.5	81	34.2	0	0	---	0.00	29.992 
22:00	39.3	39.3	39.3	81	34.0	0	0	---	0.00	29.989 
22:05	39.3	39.3	39.3	81	34.0	0	0	---	0.00	29.989 
22:10	39.3	39.3	39.3	81	34.0	0	0	---	0.00	29.989 
22:15	39.3	39.3	39.3	82	34.3	0	0	---	0.00	29.985 
22:20	39.2	39.2	39.2	82	34.2	0	0	---	0.00	29.985 
22:25	39.3	39.3	39.3	83	34.6	0	0	---	0.00	29.985 
22:30	39.5	39.5	39.5	84	35.1	0	0	---	0.00	29.983 
22:35	39.6	39.6	39.6	85	35.5	0	0	---	0.00	29.983 
22:40	40.1	40.1	40.1	86	36.3	0	0	---	0.00	29.983 
22:45	41.1	41.1	41.1	88	37.8	0	1	248	0.00	29.982 
22:50	42.3	42.3	42.3	88	39.0	0	0	---	0.00	29.982 
22:55	43.5	43.5	43.5	88	40.2	0	1	248	0.00	29.982 
23:00	44.6	44.6	44.6	85	40.4	0	2	68	0.00	29.969 
23:05	45.4	45.4	45.4	84	40.9	0	2	68	0.00	29.969 
23:10	45.8	45.8	45.8	82	40.6	0	1	68	0.00	29.969 
23:15	46.1	46.1	46.1	81	40.6	0	1	68	0.00	29.963 
23:20	46.4	46.4	46.4	81	40.9	0	2	68	0.00	29.963 
23:25	46.5	46.5	46.5	80	40.7	0	2	22	0.00	29.963 
23:30	46.7	46.7	46.7	79	40.5	0	2	292	0.00	29.962 
23:35	46.8	46.8	46.8	78	40.3	0	2	0	0.00	29.962 
23:40	47.0	47.0	47.0	78	40.5	0	2	270	0.00	29.962 
23:45	47.1	47.1	47.1	78	40.6	0	5	90	0.00	29.962 
23:50	47.3	47.3	47.3	77	40.5	0	2	248	0.00	29.962 
23:55	47.4	47.4	47.4	77	40.6	0	2	248	0.00	29.962 

CoCoRaHS
IN-AL-39
A2 Web Hosting
Creative Commons License
GoDaddy
search engine by freefind advanced

loaded 2018-11-20 15:08:47 • last modified 2010-11-18 10:43:29
Privacy PolicyDisclaimer
• wx.awcolley.com is powered by PmWiki v.2002016 •
• all content (unless otherwise noted) © 2018 A W Colley